createdAt,value
2023-01-19T00:01:27.684Z,-0.10
2023-01-19T00:03:55.633Z,0.00
2023-01-19T00:06:23.682Z,0.00
2023-01-19T00:08:51.745Z,0.10
2023-01-19T00:11:20.119Z,0.10
2023-01-19T00:13:50.828Z,0.10
2023-01-19T00:16:19.619Z,0.00
2023-01-19T00:18:47.871Z,0.00
2023-01-19T00:21:15.922Z,0.00
2023-01-19T00:23:47.325Z,-0.10
2023-01-19T00:26:16.663Z,-0.10
2023-01-19T00:28:44.969Z,-0.10
2023-01-19T00:31:14.378Z,-0.10
2023-01-19T00:33:42.399Z,0.00
2023-01-19T00:36:11.193Z,-0.10
2023-01-19T00:38:39.729Z,-0.10
2023-01-19T00:41:07.965Z,-0.10
2023-01-19T00:43:34.910Z,0.00
2023-01-19T00:46:02.948Z,-0.10
2023-01-19T00:48:32.281Z,-0.10
2023-01-19T00:51:01.022Z,-0.10
2023-01-19T00:53:32.375Z,0.00
2023-01-19T00:56:00.267Z,0.00
2023-01-19T00:58:28.187Z,0.00
2023-01-19T01:01:03.371Z,0.00
2023-01-19T01:03:33.566Z,-0.10
2023-01-19T01:06:01.582Z,-0.10
2023-01-19T01:08:29.710Z,-0.20
2023-01-19T01:10:58.034Z,-0.20
2023-01-19T01:13:27.910Z,-0.10
2023-01-19T01:15:57.966Z,-0.10
2023-01-19T01:18:26.101Z,-0.10
2023-01-19T01:21:02.589Z,-0.10
2023-01-19T01:23:30.599Z,-0.10
2023-01-19T01:25:58.528Z,-0.10
2023-01-19T01:28:26.660Z,-0.10
2023-01-19T01:30:55.520Z,-0.10
2023-01-19T01:33:40.496Z,-0.10
2023-01-19T01:36:11.320Z,-0.10
2023-01-19T01:38:39.268Z,-0.10
2023-01-19T01:41:08.056Z,-0.10
2023-01-19T01:43:48.228Z,-0.10
2023-01-19T01:46:17.786Z,-0.20
2023-01-19T01:48:50.756Z,-0.20
2023-01-19T01:51:27.165Z,-0.20
2023-01-19T01:54:20.015Z,-0.20
2023-01-19T01:56:49.444Z,-0.20
2023-01-19T01:59:26.613Z,-0.20
2023-01-19T02:02:15.693Z,-0.20
2023-01-19T02:04:47.965Z,-0.10
2023-01-19T02:07:41.661Z,-0.20
2023-01-19T02:10:28.246Z,-0.20
2023-01-19T02:13:15.499Z,-0.30
2023-01-19T02:15:45.270Z,-0.40
2023-01-19T02:18:14.007Z,-0.40
2023-01-19T02:20:46.005Z,-0.50
2023-01-19T02:23:23.345Z,-0.50
2023-01-19T02:25:54.070Z,-0.40
2023-01-19T02:28:22.341Z,-0.50
2023-01-19T02:30:50.342Z,-0.50
2023-01-19T02:33:18.379Z,-0.50
2023-01-19T02:35:47.350Z,-0.50
2023-01-19T02:38:18.256Z,-0.50
2023-01-19T02:40:46.804Z,-0.50
2023-01-19T02:43:18.834Z,-0.50
2023-01-19T02:45:48.217Z,-0.60
2023-01-19T02:48:18.002Z,-0.60
2023-01-19T02:50:49.853Z,-0.60
2023-01-19T02:53:50.950Z,-0.60
2023-01-19T02:56:45.589Z,-0.70
2023-01-19T02:59:26.755Z,-0.70
2023-01-19T03:02:08.887Z,-0.70
2023-01-19T03:04:50.088Z,-0.80
2023-01-19T03:07:24.651Z,-0.80
2023-01-19T03:10:00.195Z,-0.80
2023-01-19T03:12:38.609Z,-0.80
2023-01-19T03:15:15.984Z,-0.80
2023-01-19T03:17:46.393Z,-0.70
2023-01-19T03:20:18.787Z,-0.70
2023-01-19T03:22:47.884Z,-0.70
2023-01-19T03:25:16.355Z,-0.70
2023-01-19T03:27:46.582Z,-0.70
2023-01-19T03:30:21.364Z,-0.70
2023-01-19T03:32:53.180Z,-0.70
2023-01-19T03:35:25.709Z,-0.80
2023-01-19T03:37:58.149Z,-0.80
2023-01-19T03:40:28.825Z,-0.80
2023-01-19T03:42:58.202Z,-0.80
2023-01-19T03:45:28.806Z,-0.90
2023-01-19T03:47:57.099Z,-0.90
2023-01-19T03:50:28.131Z,-0.90
2023-01-19T03:53:06.219Z,-0.90
2023-01-19T03:55:34.588Z,-0.90
2023-01-19T03:58:02.710Z,-0.90
2023-01-19T04:00:32.466Z,-0.90
2023-01-19T04:03:00.859Z,-0.90
2023-01-19T04:05:29.374Z,-0.90
2023-01-19T04:07:57.362Z,-1.00
2023-01-19T04:10:25.568Z,-1.00
2023-01-19T04:12:59.417Z,-1.10
2023-01-19T04:15:28.683Z,-1.20
2023-01-19T04:18:00.051Z,-1.30
2023-01-19T04:20:28.930Z,-1.30
2023-01-19T04:23:00.681Z,-1.30
2023-01-19T04:25:29.419Z,-1.30
2023-01-19T04:27:58.888Z,-1.30
2023-01-19T04:30:28.018Z,-1.40
2023-01-19T04:32:56.335Z,-1.30
2023-01-19T04:35:25.635Z,-1.30
2023-01-19T04:37:53.813Z,-1.30
2023-01-19T04:40:21.987Z,-1.40
2023-01-19T04:42:50.190Z,-1.30
2023-01-19T04:45:18.543Z,-1.30
2023-01-19T04:47:46.469Z,-1.30
2023-01-19T04:50:15.191Z,-1.30
2023-01-19T04:52:44.566Z,-1.30
2023-01-19T04:55:12.637Z,-1.40
2023-01-19T04:57:40.562Z,-1.50
2023-01-19T05:00:09.975Z,-1.40
2023-01-19T05:02:37.916Z,-1.40
2023-01-19T05:05:06.623Z,-1.40
2023-01-19T05:07:35.275Z,-1.40
2023-01-19T05:10:05.290Z,-1.40
2023-01-19T05:12:33.331Z,-1.40
2023-01-19T05:15:01.552Z,-1.50
2023-01-19T05:17:29.580Z,-1.40
2023-01-19T05:19:57.485Z,-1.50
2023-01-19T05:22:25.352Z,-1.60
2023-01-19T05:24:53.314Z,-1.60
2023-01-19T05:27:22.611Z,-1.60
2023-01-19T05:29:50.513Z,-1.60
2023-01-19T05:32:18.409Z,-1.60
2023-01-19T05:34:46.315Z,-1.60
2023-01-19T05:37:14.257Z,-1.60
2023-01-19T05:39:42.201Z,-1.50
2023-01-19T05:42:10.090Z,-1.50
2023-01-19T05:44:39.371Z,-1.40
2023-01-19T05:47:07.245Z,-1.30
2023-01-19T05:49:35.917Z,-1.40
2023-01-19T05:52:06.064Z,-1.40
2023-01-19T05:54:34.063Z,-1.40
2023-01-19T05:57:03.036Z,-1.50
2023-01-19T05:59:31.009Z,-1.50
2023-01-19T06:02:01.085Z,-1.60
2023-01-19T06:04:29.056Z,-1.50
2023-01-19T06:06:56.968Z,-1.60
2023-01-19T06:09:25.001Z,-1.50
2023-01-19T06:11:54.162Z,-1.50
2023-01-19T06:14:22.058Z,-1.50
2023-01-19T06:16:49.959Z,-1.60
2023-01-19T06:19:19.327Z,-1.50
2023-01-19T06:21:52.196Z,-1.50
2023-01-19T06:24:20.216Z,-1.50
2023-01-19T06:26:48.161Z,-1.50
2023-01-19T06:29:16.227Z,-1.50
2023-01-19T06:31:44.248Z,-1.50
2023-01-19T06:34:12.403Z,-1.50
2023-01-19T06:37:00.111Z,-1.60
2023-01-19T06:39:28.649Z,-1.80
2023-01-19T06:41:56.546Z,-1.80
2023-01-19T06:44:25.913Z,-1.80
2023-01-19T06:47:15.219Z,-1.80
2023-01-19T06:49:42.092Z,-1.70
2023-01-19T06:52:14.040Z,-1.80
2023-01-19T06:54:43.367Z,-1.70
2023-01-19T06:57:13.939Z,-1.70
2023-01-19T06:59:42.042Z,-1.80
2023-01-19T07:02:27.245Z,-1.70
2023-01-19T07:04:56.175Z,-1.80
2023-01-19T07:07:25.853Z,-1.70
2023-01-19T07:09:54.332Z,-1.70
2023-01-19T07:12:22.462Z,-1.80
2023-01-19T07:14:50.493Z,-1.80
2023-01-19T07:17:18.423Z,-1.70
2023-01-19T07:19:46.930Z,-1.70
2023-01-19T07:22:15.046Z,-1.60
2023-01-19T07:24:44.441Z,-1.60
2023-01-19T07:27:12.530Z,-1.60
2023-01-19T07:29:40.596Z,-1.60
2023-01-19T07:32:08.548Z,-1.60
2023-01-19T07:34:37.000Z,-1.60
2023-01-19T07:37:05.288Z,-1.50
2023-01-19T07:39:33.244Z,-1.60
2023-01-19T07:42:02.433Z,-1.50
2023-01-19T07:44:33.173Z,-1.50
2023-01-19T07:47:01.088Z,-1.50
2023-01-19T07:49:28.985Z,-1.40
2023-01-19T07:51:56.959Z,-1.50
2023-01-19T07:54:25.017Z,-1.50
2023-01-19T07:56:55.016Z,-1.40
2023-01-19T07:59:24.295Z,-1.40
2023-01-19T08:01:54.089Z,-1.30
2023-01-19T08:04:22.235Z,-1.20
2023-01-19T08:06:50.343Z,-1.20
2023-01-19T08:09:19.009Z,-1.20
2023-01-19T08:11:46.883Z,-1.20
2023-01-19T08:14:14.817Z,-1.10
2023-01-19T08:16:44.073Z,-1.00
2023-01-19T08:19:12.194Z,-1.00
2023-01-19T08:21:40.168Z,-1.00
2023-01-19T08:24:08.704Z,-1.00
2023-01-19T08:26:37.040Z,-0.80
2023-01-19T08:29:07.089Z,-0.70
2023-01-19T08:31:35.015Z,-0.70
2023-01-19T08:34:04.330Z,-0.60
2023-01-19T08:36:32.376Z,-0.60
2023-01-19T08:39:00.331Z,-0.50
2023-01-19T08:41:28.253Z,-0.40
2023-01-19T08:43:56.301Z,-0.30
2023-01-19T08:46:24.237Z,-0.20
2023-01-19T08:48:52.261Z,-0.30
2023-01-19T08:51:21.560Z,-0.30
2023-01-19T08:53:49.770Z,-0.20
2023-01-19T08:56:20.410Z,0.00
2023-01-19T08:58:59.477Z,0.00
2023-01-19T09:01:37.444Z,0.00
2023-01-19T09:04:06.154Z,0.10
2023-01-19T09:06:35.639Z,0.10
2023-01-19T09:09:03.946Z,0.10
2023-01-19T09:11:31.902Z,0.10
2023-01-19T09:13:59.902Z,0.30
2023-01-19T09:16:29.225Z,0.40
2023-01-19T09:18:57.295Z,0.60
2023-01-19T09:21:26.235Z,0.70
2023-01-19T09:23:55.679Z,0.70
2023-01-19T09:26:23.755Z,0.70
2023-01-19T09:28:51.735Z,0.70
2023-01-19T09:31:19.774Z,0.70
2023-01-19T09:33:47.728Z,0.70
2023-01-19T09:36:15.730Z,0.80
2023-01-19T09:38:43.960Z,1.00
2023-01-19T09:41:20.135Z,1.00
2023-01-19T09:43:53.188Z,1.10
2023-01-19T09:46:24.436Z,1.00
2023-01-19T09:48:56.456Z,1.10
2023-01-19T09:51:26.465Z,1.20
2023-01-19T09:54:01.199Z,1.40
2023-01-19T09:56:32.296Z,1.40
2023-01-19T09:59:01.259Z,1.50
2023-01-19T10:01:46.980Z,1.50
2023-01-19T10:04:34.834Z,1.50
2023-01-19T10:07:17.145Z,1.40
2023-01-19T10:10:02.345Z,1.30
2023-01-19T10:12:45.732Z,1.40
2023-01-19T10:15:22.566Z,1.60
2023-01-19T10:18:03.538Z,1.60
2023-01-19T10:20:39.877Z,1.60
2023-01-19T10:23:22.909Z,1.60
2023-01-19T10:25:51.481Z,1.60
2023-01-19T10:28:24.927Z,1.70
2023-01-19T10:30:55.307Z,1.60
2023-01-19T10:33:23.634Z,1.50
2023-01-19T10:35:51.635Z,1.70
2023-01-19T10:38:22.389Z,1.80
2023-01-19T10:40:56.368Z,1.60
2023-01-19T10:43:40.003Z,1.60
2023-01-19T10:46:15.915Z,1.60
2023-01-19T10:48:44.913Z,1.80
2023-01-19T10:51:13.560Z,1.90
2023-01-19T10:53:43.632Z,2.10
2023-01-19T10:56:15.543Z,2.30
2023-01-19T10:58:44.899Z,2.30
2023-01-19T11:01:18.868Z,2.20
2023-01-19T11:03:47.191Z,2.40
2023-01-19T11:06:24.275Z,2.50
2023-01-19T11:08:54.229Z,2.10
2023-01-19T11:11:24.530Z,2.10
2023-01-19T11:14:11.660Z,2.00
2023-01-19T11:16:40.499Z,1.90
2023-01-19T11:19:25.008Z,1.80
2023-01-19T11:21:53.987Z,2.00
2023-01-19T11:24:24.115Z,1.90
2023-01-19T11:27:02.893Z,2.10
2023-01-19T11:29:32.558Z,2.20
2023-01-19T11:32:12.404Z,2.10
2023-01-19T11:34:40.383Z,2.20
2023-01-19T11:37:28.486Z,2.40
2023-01-19T11:39:58.537Z,2.50
2023-01-19T11:42:27.293Z,2.80
2023-01-19T11:45:02.836Z,3.00
2023-01-19T11:47:36.382Z,2.90
2023-01-19T11:50:13.123Z,2.90
2023-01-19T11:52:44.775Z,2.70
2023-01-19T11:55:19.474Z,2.70
2023-01-19T11:57:50.917Z,2.90
2023-01-19T12:00:26.302Z,2.90
2023-01-19T12:02:59.629Z,2.70
2023-01-19T12:05:31.162Z,2.80
2023-01-19T12:08:04.129Z,2.70
2023-01-19T12:10:37.806Z,2.60
2023-01-19T12:13:05.839Z,2.70
2023-01-19T12:15:39.730Z,2.90
2023-01-19T12:18:17.122Z,3.10
2023-01-19T12:20:50.458Z,2.90
2023-01-19T12:23:31.311Z,2.70
2023-01-19T12:26:09.451Z,2.80
2023-01-19T12:28:42.482Z,2.90
2023-01-19T12:31:16.531Z,2.80
2023-01-19T12:33:44.572Z,3.00
2023-01-19T12:36:39.619Z,3.10
2023-01-19T12:39:17.997Z,2.80
2023-01-19T12:41:47.020Z,2.80
2023-01-19T12:44:24.688Z,2.70
2023-01-19T12:47:03.327Z,2.60
2023-01-19T12:49:35.410Z,2.60
2023-01-19T12:52:19.372Z,2.50
2023-01-19T12:54:56.419Z,2.50
2023-01-19T12:57:28.038Z,2.40
2023-01-19T13:00:01.078Z,2.40
2023-01-19T13:02:49.212Z,2.40
2023-01-19T13:05:20.665Z,2.40
2023-01-19T13:08:17.100Z,2.40
2023-01-19T13:10:57.262Z,2.20
2023-01-19T13:13:27.032Z,2.10
2023-01-19T13:15:56.203Z,2.10
2023-01-19T13:18:28.611Z,2.20
2023-01-19T13:21:00.974Z,2.30
2023-01-19T13:23:42.773Z,2.30
2023-01-19T13:26:15.780Z,2.40
2023-01-19T13:28:46.259Z,2.40
2023-01-19T13:31:15.089Z,2.20
2023-01-19T13:33:50.802Z,2.20
2023-01-19T13:36:26.780Z,2.30
2023-01-19T13:38:56.470Z,2.40
2023-01-19T13:41:26.115Z,2.50
2023-01-19T13:44:00.874Z,2.70
2023-01-19T13:46:29.972Z,2.70
2023-01-19T13:49:03.819Z,2.60
2023-01-19T13:51:31.743Z,2.50
2023-01-19T13:54:01.821Z,2.60
2023-01-19T13:56:30.799Z,2.50
2023-01-19T13:59:00.726Z,2.50
2023-01-19T14:01:30.410Z,2.60
2023-01-19T14:04:00.090Z,2.60
2023-01-19T14:06:38.745Z,2.60
2023-01-19T14:09:16.907Z,2.40
2023-01-19T14:11:46.889Z,2.30
2023-01-19T14:14:25.877Z,2.30
2023-01-19T14:16:54.376Z,2.40
2023-01-19T14:19:24.098Z,2.20
2023-01-19T14:22:00.963Z,2.10
2023-01-19T14:24:31.979Z,2.10
2023-01-19T14:27:18.278Z,2.00
2023-01-19T14:29:50.361Z,2.10
2023-01-19T14:32:20.545Z,2.00
2023-01-19T14:34:52.001Z,2.00
2023-01-19T14:37:23.853Z,2.10
2023-01-19T14:39:54.399Z,2.00
2023-01-19T14:42:27.000Z,2.00
2023-01-19T14:44:57.401Z,2.00
2023-01-19T14:47:33.256Z,1.80
2023-01-19T14:50:10.818Z,1.90
2023-01-19T14:52:41.107Z,1.90
2023-01-19T14:55:20.411Z,2.00
2023-01-19T14:57:49.104Z,2.10
2023-01-19T15:00:19.033Z,2.00
2023-01-19T15:02:47.521Z,2.10
2023-01-19T15:05:17.416Z,2.00
2023-01-19T15:07:47.370Z,1.80
2023-01-19T15:10:20.550Z,1.70
2023-01-19T15:12:48.517Z,1.60
2023-01-19T15:15:19.463Z,1.50
2023-01-19T15:17:47.833Z,1.50
2023-01-19T15:20:20.518Z,1.40
2023-01-19T15:22:49.126Z,1.40
2023-01-19T15:25:18.384Z,1.40
2023-01-19T15:27:47.075Z,1.30
2023-01-19T15:30:17.439Z,1.30
2023-01-19T15:32:45.931Z,1.30
2023-01-19T15:35:19.831Z,1.30
2023-01-19T15:37:48.767Z,1.30
2023-01-19T15:40:17.917Z,1.30
2023-01-19T15:42:46.615Z,1.20
2023-01-19T15:45:37.682Z,1.20
2023-01-19T15:48:07.162Z,1.20
2023-01-19T15:50:37.604Z,1.20
2023-01-19T15:53:07.796Z,1.30
2023-01-19T15:55:35.781Z,1.30
2023-01-19T15:58:03.740Z,1.30
2023-01-19T16:00:33.442Z,1.20
2023-01-19T16:03:03.427Z,1.10
2023-01-19T16:05:42.507Z,1.10
2023-01-19T16:08:13.164Z,1.00
2023-01-19T16:10:41.309Z,1.10
2023-01-19T16:13:09.652Z,1.10
2023-01-19T16:15:38.758Z,1.00
2023-01-19T16:18:07.140Z,0.90
2023-01-19T16:20:35.514Z,0.80
2023-01-19T16:23:14.478Z,0.80
2023-01-19T16:25:44.829Z,0.90
2023-01-19T16:28:12.960Z,0.90
2023-01-19T16:30:41.040Z,0.90
2023-01-19T16:33:13.194Z,0.90
2023-01-19T16:35:41.166Z,0.90
2023-01-19T16:38:10.178Z,0.90
2023-01-19T16:40:38.636Z,0.90
2023-01-19T16:43:07.934Z,0.80
2023-01-19T16:45:35.916Z,0.80
2023-01-19T16:48:03.868Z,0.80
2023-01-19T16:50:31.808Z,0.80
2023-01-19T16:53:00.128Z,0.80
2023-01-19T16:55:28.068Z,0.70
2023-01-19T16:57:56.701Z,0.80
2023-01-19T17:00:26.161Z,0.70
2023-01-19T17:02:54.192Z,0.70
2023-01-19T17:05:22.332Z,0.80
2023-01-19T17:07:50.369Z,0.80
2023-01-19T17:10:18.348Z,0.80
2023-01-19T17:12:46.377Z,0.70
2023-01-19T17:15:14.420Z,0.80
2023-01-19T17:17:43.734Z,0.80
2023-01-19T17:20:12.781Z,0.80
2023-01-19T17:22:40.826Z,0.80
2023-01-19T17:25:09.527Z,0.80
2023-01-19T17:27:37.429Z,0.60
2023-01-19T17:30:05.848Z,0.60
2023-01-19T17:32:33.714Z,0.70
2023-01-19T17:35:03.061Z,0.60
2023-01-19T17:37:30.926Z,0.70
2023-01-19T17:39:58.931Z,0.60
2023-01-19T17:42:26.849Z,0.60
2023-01-19T17:44:54.726Z,0.60
2023-01-19T17:47:25.849Z,0.50
2023-01-19T17:49:53.944Z,0.50
2023-01-19T17:52:23.245Z,0.50
2023-01-19T17:54:51.196Z,0.40
2023-01-19T17:57:19.128Z,0.50
2023-01-19T17:59:48.139Z,0.40
2023-01-19T18:02:16.250Z,0.40
2023-01-19T18:04:44.341Z,0.50
2023-01-19T18:07:12.263Z,0.40
2023-01-19T18:09:41.542Z,0.40
2023-01-19T18:12:09.610Z,0.40
2023-01-19T18:14:37.544Z,0.40
2023-01-19T18:17:05.508Z,0.40
2023-01-19T18:19:33.514Z,0.40
2023-01-19T18:22:01.401Z,0.40
2023-01-19T18:24:29.340Z,0.40
2023-01-19T18:26:58.661Z,0.40
2023-01-19T18:29:26.722Z,0.40
2023-01-19T18:31:54.670Z,0.40
2023-01-19T18:34:22.564Z,0.40
2023-01-19T18:36:50.509Z,0.40
2023-01-19T18:39:18.382Z,0.40
2023-01-19T18:41:46.305Z,0.50
2023-01-19T18:44:15.546Z,0.50
2023-01-19T18:46:43.462Z,0.50
2023-01-19T18:49:11.380Z,0.40
2023-01-19T18:51:41.449Z,0.40
2023-01-19T18:54:10.214Z,0.40
2023-01-19T18:56:38.185Z,0.40
2023-01-19T18:59:06.088Z,0.40
2023-01-19T19:01:36.364Z,0.40
2023-01-19T19:04:04.468Z,0.40
2023-01-19T19:06:32.387Z,0.40
2023-01-19T19:09:00.342Z,0.40
2023-01-19T19:11:28.963Z,0.40
2023-01-19T19:13:59.242Z,0.30
2023-01-19T19:16:27.760Z,0.30
2023-01-19T19:18:59.320Z,0.30
2023-01-19T19:21:27.584Z,0.30
2023-01-19T19:23:57.570Z,0.40
2023-01-19T19:26:27.968Z,0.40
2023-01-19T19:28:56.185Z,0.40
2023-01-19T19:31:28.464Z,0.40
2023-01-19T19:33:59.039Z,0.30
2023-01-19T19:36:28.640Z,0.30
2023-01-19T19:38:56.603Z,0.30
2023-01-19T19:41:26.922Z,0.30
2023-01-19T19:43:55.860Z,0.20
2023-01-19T19:46:25.097Z,0.20
2023-01-19T19:48:54.159Z,0.10
2023-01-19T19:51:25.428Z,0.10
2023-01-19T19:53:54.208Z,0.10
2023-01-19T19:56:24.559Z,0.10
2023-01-19T19:58:54.955Z,0.20
2023-01-19T20:01:27.080Z,0.10
2023-01-19T20:03:56.004Z,0.10
2023-01-19T20:06:26.519Z,0.10
2023-01-19T20:08:56.733Z,0.00
2023-01-19T20:11:28.385Z,0.10
2023-01-19T20:13:57.142Z,0.00
2023-01-19T20:16:26.114Z,0.00
2023-01-19T20:18:55.106Z,0.00
2023-01-19T20:21:26.136Z,0.10
2023-01-19T20:23:55.842Z,0.10
2023-01-19T20:26:26.842Z,0.20
2023-01-19T20:28:58.103Z,0.20
2023-01-19T20:31:28.557Z,0.00
2023-01-19T20:33:59.493Z,-0.10
2023-01-19T20:36:29.092Z,-0.10
2023-01-19T20:38:58.070Z,0.00
2023-01-19T20:41:27.578Z,0.00
2023-01-19T20:43:55.856Z,0.00
2023-01-19T20:46:24.129Z,-0.10
2023-01-19T20:48:54.647Z,-0.20
2023-01-19T20:51:23.022Z,-0.20
2023-01-19T20:53:52.280Z,-0.20
2023-01-19T20:56:20.154Z,-0.10
2023-01-19T20:58:50.192Z,-0.10
2023-01-19T21:01:20.457Z,-0.20
2023-01-19T21:03:48.759Z,-0.30
2023-01-19T21:06:17.630Z,-0.40
2023-01-19T21:08:45.949Z,-0.40
2023-01-19T21:11:16.244Z,-0.50
2023-01-19T21:13:44.156Z,-0.70
2023-01-19T21:16:12.402Z,-0.80
2023-01-19T21:18:40.400Z,-0.70
2023-01-19T21:21:14.907Z,-0.80
2023-01-19T21:23:50.265Z,-1.00
2023-01-19T21:26:19.470Z,-1.10
2023-01-19T21:28:47.395Z,-1.00
2023-01-19T21:31:15.484Z,-1.10
2023-01-19T21:33:44.213Z,-1.10
2023-01-19T21:36:12.526Z,-1.10
2023-01-19T21:38:40.791Z,-1.10
2023-01-19T21:41:12.467Z,-1.00
2023-01-19T21:43:43.083Z,-1.00
2023-01-19T21:46:12.306Z,-1.00
2023-01-19T21:48:40.256Z,-1.00
2023-01-19T21:51:08.522Z,-1.00
2023-01-19T21:53:36.562Z,-1.10
2023-01-19T21:56:07.715Z,-1.00
2023-01-19T21:58:35.670Z,-1.10
2023-01-19T22:01:07.218Z,-1.00
2023-01-19T22:03:35.265Z,-1.00
2023-01-19T22:06:05.760Z,-1.10
2023-01-19T22:08:33.889Z,-1.10
2023-01-19T22:11:05.276Z,-1.20
2023-01-19T22:13:34.788Z,-1.30
2023-01-19T22:16:05.295Z,-1.30
2023-01-19T22:18:35.845Z,-1.30
2023-01-19T22:21:11.334Z,-1.30
2023-01-19T22:23:39.725Z,-1.10
2023-01-19T22:26:08.363Z,-1.20
2023-01-19T22:28:37.130Z,-1.20
2023-01-19T22:31:08.704Z,-1.20
2023-01-19T22:33:36.991Z,-1.30
2023-01-19T22:36:11.307Z,-1.40
2023-01-19T22:38:40.183Z,-1.50
2023-01-19T22:41:15.859Z,-1.60
2023-01-19T22:43:44.628Z,-1.60
2023-01-19T22:46:14.155Z,-1.60
2023-01-19T22:48:42.306Z,-1.60
2023-01-19T22:51:10.396Z,-1.60
2023-01-19T22:53:39.286Z,-1.60
2023-01-19T22:56:12.667Z,-1.60
2023-01-19T22:58:41.321Z,-1.60
2023-01-19T23:01:10.162Z,-1.50
2023-01-19T23:03:39.679Z,-1.50
2023-01-19T23:06:09.217Z,-1.50
2023-01-19T23:08:37.484Z,-1.50
2023-01-19T23:11:07.095Z,-1.50
2023-01-19T23:13:35.534Z,-1.40
2023-01-19T23:16:04.365Z,-1.30
2023-01-19T23:18:32.655Z,-1.20
2023-01-19T23:21:05.251Z,-1.30
2023-01-19T23:23:35.336Z,-1.20
2023-01-19T23:26:04.221Z,-1.10
2023-01-19T23:28:34.099Z,-1.10
2023-01-19T23:31:02.467Z,-1.00
2023-01-19T23:33:30.544Z,-1.00
2023-01-19T23:35:58.448Z,-1.00
2023-01-19T23:38:27.687Z,-1.00
2023-01-19T23:40:58.324Z,-1.00
2023-01-19T23:43:26.285Z,-1.10
2023-01-19T23:45:54.191Z,-1.10
2023-01-19T23:48:22.374Z,-1.00
2023-01-19T23:50:50.280Z,-1.10
2023-01-19T23:53:18.300Z,-1.10
2023-01-19T23:55:47.553Z,-1.00
2023-01-19T23:58:16.287Z,-1.00
